createdAt,value
2023-04-08T00:00:50.300Z,11.51
2023-04-08T00:03:54.217Z,11.49
2023-04-08T00:06:58.004Z,11.22
2023-04-08T00:10:01.604Z,11.21
2023-04-08T00:13:07.099Z,11.03
2023-04-08T00:16:10.762Z,11.18
2023-04-08T00:19:14.420Z,11.18
2023-04-08T00:22:18.033Z,11.18
2023-04-08T00:25:24.093Z,10.62
2023-04-08T00:28:30.905Z,10.74
2023-04-08T00:31:34.592Z,10.48
2023-04-08T00:34:38.773Z,10.76
2023-04-08T00:37:42.888Z,10.78
2023-04-08T00:40:46.590Z,10.93
2023-04-08T00:43:51.693Z,10.88
2023-04-08T00:46:56.023Z,10.85
2023-04-08T00:49:59.815Z,10.75
2023-04-08T00:53:03.438Z,10.52
2023-04-08T00:56:07.174Z,10.51
2023-04-08T00:59:12.487Z,10.61
2023-04-08T01:02:20.811Z,10.72
2023-04-08T01:05:32.584Z,10.81
2023-04-08T01:08:39.919Z,10.60
2023-04-08T01:11:46.146Z,10.60
2023-04-08T01:14:57.765Z,10.48
2023-04-08T01:18:03.365Z,10.45
2023-04-08T01:21:09.151Z,10.16
2023-04-08T01:24:21.150Z,10.08
2023-04-08T01:27:27.314Z,10.18
2023-04-08T01:30:32.280Z,10.20
2023-04-08T01:33:37.153Z,9.96
2023-04-08T01:36:42.187Z,10.10
2023-04-08T01:39:47.213Z,10.12
2023-04-08T01:42:55.801Z,10.10
2023-04-08T01:46:00.969Z,10.11
2023-04-08T01:49:06.144Z,10.01
2023-04-08T01:52:13.071Z,9.76
2023-04-08T01:55:17.086Z,9.92
2023-04-08T01:58:24.302Z,9.86
2023-04-08T02:01:31.101Z,9.74
2023-04-08T02:04:35.731Z,9.63
2023-04-08T02:07:39.354Z,9.94
2023-04-08T02:10:42.999Z,10.09
2023-04-08T02:13:48.225Z,10.15
2023-04-08T02:16:55.014Z,10.14
2023-04-08T02:20:05.094Z,10.18
2023-04-08T02:23:15.379Z,9.84
2023-04-08T02:26:21.118Z,9.83
2023-04-08T02:29:27.747Z,10.08
2023-04-08T02:32:34.111Z,9.65
2023-04-08T02:35:38.603Z,9.74
2023-04-08T02:38:49.906Z,9.43
2023-04-08T02:41:53.936Z,9.66
2023-04-08T02:45:00.498Z,9.62
2023-04-08T02:48:04.086Z,9.60
2023-04-08T02:51:08.586Z,9.49
2023-04-08T02:54:12.197Z,9.58
2023-04-08T02:57:17.309Z,9.63
2023-04-08T03:00:22.473Z,9.49
2023-04-08T03:03:29.836Z,9.42
2023-04-08T03:06:33.679Z,9.32
2023-04-08T03:09:37.308Z,9.38
2023-04-08T03:12:40.934Z,9.30
2023-04-08T03:15:46.587Z,9.47
2023-04-08T03:18:52.086Z,9.44
2023-04-08T03:21:55.970Z,9.43
2023-04-08T03:24:59.711Z,9.76
2023-04-08T03:28:03.359Z,9.84
2023-04-08T03:31:08.655Z,9.63
2023-04-08T03:34:12.338Z,9.67
2023-04-08T03:37:15.946Z,9.65
2023-04-08T03:40:19.891Z,9.51
2023-04-08T03:43:23.445Z,9.39
2023-04-08T03:46:28.788Z,9.31
2023-04-08T03:49:32.558Z,9.54
2023-04-08T03:52:36.222Z,9.40
2023-04-08T03:55:39.922Z,9.73
2023-04-08T03:58:43.538Z,9.93
2023-04-08T04:01:48.969Z,9.70
2023-04-08T04:04:52.737Z,9.54
2023-04-08T04:07:56.478Z,9.99
2023-04-08T04:11:00.576Z,9.43
2023-04-08T04:14:04.333Z,9.35
2023-04-08T04:17:09.442Z,9.58
2023-04-08T04:20:14.048Z,9.76
2023-04-08T04:23:17.662Z,9.83
2023-04-08T04:26:22.115Z,9.97
2023-04-08T04:29:26.169Z,9.99
2023-04-08T04:32:31.417Z,10.05
2023-04-08T04:35:35.596Z,9.86
2023-04-08T04:38:39.365Z,10.11
2023-04-08T04:41:44.557Z,10.08
2023-04-08T04:44:48.211Z,9.97
2023-04-08T04:47:53.265Z,9.88
2023-04-08T04:50:57.506Z,9.94
2023-04-08T04:54:01.306Z,10.26
2023-04-08T04:57:05.050Z,10.11
2023-04-08T05:00:09.982Z,10.35
2023-04-08T05:03:15.610Z,10.31
2023-04-08T05:06:19.467Z,10.31
2023-04-08T05:09:23.352Z,10.37
2023-04-08T05:12:28.351Z,10.60
2023-04-08T05:15:32.180Z,10.65
2023-04-08T05:18:37.473Z,10.75
2023-04-08T05:21:41.374Z,10.80
2023-04-08T05:24:45.352Z,10.40
2023-04-08T05:27:49.067Z,10.25
2023-04-08T05:30:53.541Z,10.48
2023-04-08T05:33:58.913Z,10.58
2023-04-08T05:37:02.697Z,10.70
2023-04-08T05:40:07.858Z,10.78
2023-04-08T05:43:11.834Z,10.94
2023-04-08T05:46:15.788Z,11.12
2023-04-08T05:49:21.444Z,11.10
2023-04-08T05:52:25.164Z,11.29
2023-04-08T05:55:29.309Z,11.00
2023-04-08T05:58:33.139Z,11.21
2023-04-08T06:01:37.031Z,11.29
2023-04-08T06:04:42.649Z,11.43
2023-04-08T06:07:46.870Z,11.62
2023-04-08T06:10:51.727Z,11.66
2023-04-08T06:13:55.637Z,11.59
2023-04-08T06:16:59.357Z,11.84
2023-04-08T06:20:05.133Z,11.78
2023-04-08T06:23:08.875Z,12.05
2023-04-08T06:26:13.583Z,11.93
2023-04-08T06:29:17.413Z,11.87
2023-04-08T06:32:21.303Z,12.31
2023-04-08T06:35:26.561Z,12.39
2023-04-08T06:38:30.373Z,12.62
2023-04-08T06:41:34.277Z,12.13
2023-04-08T06:44:52.349Z,12.72
2023-04-08T06:47:57.385Z,12.74
2023-04-08T06:51:03.038Z,13.24
2023-04-08T06:54:06.857Z,13.32
2023-04-08T06:57:10.805Z,13.40
2023-04-08T07:00:15.487Z,13.40
2023-04-08T07:03:19.358Z,12.88
2023-04-08T07:06:24.797Z,12.77
2023-04-08T07:09:28.986Z,12.79
2023-04-08T07:12:32.789Z,13.40
2023-04-08T07:15:36.710Z,13.98
2023-04-08T07:18:41.805Z,14.11
2023-04-08T07:21:47.177Z,14.24
2023-04-08T07:24:51.033Z,13.90
2023-04-08T07:27:54.853Z,14.22
2023-04-08T07:30:58.820Z,14.34
2023-04-08T07:34:02.717Z,14.43
2023-04-08T07:37:08.031Z,14.72
2023-04-08T07:40:12.697Z,15.23
2023-04-08T07:43:16.573Z,16.06
2023-04-08T07:46:20.815Z,16.32
2023-04-08T07:49:24.714Z,16.38
2023-04-08T07:52:31.613Z,17.02
2023-04-08T07:55:35.842Z,17.53
2023-04-08T07:58:40.777Z,17.73
2023-04-08T08:01:45.086Z,17.47
2023-04-08T08:04:48.935Z,17.41
2023-04-08T08:07:54.205Z,16.87
2023-04-08T08:10:58.076Z,16.81
2023-04-08T08:14:01.977Z,17.05
2023-04-08T08:17:05.884Z,16.77
2023-04-08T08:20:10.721Z,16.68
2023-04-08T08:23:16.079Z,16.39
2023-04-08T08:26:20.003Z,16.34
2023-04-08T08:29:23.957Z,15.97
2023-04-08T08:32:27.864Z,16.43
2023-04-08T08:35:31.797Z,15.89
2023-04-08T08:38:37.166Z,15.11
2023-04-08T08:41:42.467Z,16.06
2023-04-08T08:44:46.661Z,15.75
2023-04-08T08:47:51.647Z,15.24
2023-04-08T08:50:55.564Z,15.42
2023-04-08T08:54:04.509Z,16.53
2023-04-08T08:57:18.877Z,17.00
2023-04-08T09:00:34.574Z,16.80
2023-04-08T09:03:39.135Z,17.17
2023-04-08T09:06:44.214Z,16.93
2023-04-08T09:09:53.021Z,16.87
2023-04-08T09:12:57.915Z,16.83
2023-04-08T09:16:06.635Z,17.03
2023-04-08T09:19:12.191Z,16.58
2023-04-08T09:22:16.213Z,16.12
2023-04-08T09:25:27.180Z,15.97
2023-04-08T09:28:32.038Z,16.25
2023-04-08T09:31:38.610Z,16.38
2023-04-08T09:34:42.507Z,16.31
2023-04-08T09:37:48.254Z,15.59
2023-04-08T09:40:54.945Z,16.10
2023-04-08T09:44:00.985Z,16.42
2023-04-08T09:47:12.098Z,16.39
2023-04-08T09:50:18.434Z,16.50
2023-04-08T09:53:27.757Z,17.39
2023-04-08T09:56:42.485Z,17.47
2023-04-08T09:59:56.916Z,17.20
2023-04-08T10:03:12.108Z,17.53
2023-04-08T10:06:17.172Z,17.57
2023-04-08T10:09:21.588Z,17.33
2023-04-08T10:12:26.741Z,17.51
2023-04-08T10:15:31.589Z,17.98
2023-04-08T10:18:35.648Z,17.82
2023-04-08T10:21:43.538Z,17.99
2023-04-08T10:25:33.464Z,17.85
2023-04-08T10:28:38.753Z,17.69
2023-04-08T10:31:42.885Z,16.98
2023-04-08T10:34:55.116Z,16.97
2023-04-08T10:37:59.518Z,17.38
2023-04-08T10:41:03.349Z,17.54
2023-04-08T10:44:17.712Z,18.41
2023-04-08T10:47:27.834Z,17.62
2023-04-08T10:50:32.715Z,17.67
2023-04-08T10:53:38.593Z,18.22
2023-04-08T10:56:49.870Z,18.38
2023-04-08T10:59:55.324Z,18.65
2023-04-08T11:03:02.787Z,19.02
2023-04-08T11:06:07.802Z,18.14
2023-04-08T11:09:12.369Z,18.26
2023-04-08T11:12:19.088Z,18.37
2023-04-08T11:15:25.789Z,17.52
2023-04-08T11:18:30.120Z,17.65
2023-04-08T11:21:36.802Z,17.51
2023-04-08T11:24:41.357Z,17.56
2023-04-08T11:27:45.407Z,18.05
2023-04-08T11:30:51.129Z,17.72
2023-04-08T11:33:57.055Z,17.31
2023-04-08T11:37:00.848Z,17.18
2023-04-08T11:40:07.998Z,18.00
2023-04-08T11:43:12.571Z,17.55
2023-04-08T11:46:18.020Z,17.62
2023-04-08T11:49:21.843Z,17.61
2023-04-08T11:52:41.852Z,17.85
2023-04-08T11:55:45.796Z,17.20
2023-04-08T11:58:50.176Z,17.37
2023-04-08T12:01:55.517Z,17.35
2023-04-08T12:04:59.357Z,16.99
2023-04-08T12:08:03.702Z,17.00
2023-04-08T12:11:19.202Z,17.57
2023-04-08T12:14:28.194Z,17.74
2023-04-08T12:17:33.897Z,18.21
2023-04-08T12:20:37.771Z,18.06
2023-04-08T12:23:41.846Z,18.38
2023-04-08T12:26:45.730Z,18.02
2023-04-08T12:29:50.112Z,18.30
2023-04-08T12:32:55.681Z,17.74
2023-04-08T12:35:59.816Z,17.68
2023-04-08T12:39:03.705Z,17.39
2023-04-08T12:42:07.626Z,17.50
2023-04-08T12:45:11.889Z,17.51
2023-04-08T12:48:17.267Z,17.69
2023-04-08T12:51:21.232Z,17.72
2023-04-08T12:54:25.174Z,17.77
2023-04-08T12:57:29.026Z,17.94
2023-04-08T13:00:32.928Z,17.43
2023-04-08T13:03:39.663Z,17.64
2023-04-08T13:06:43.526Z,17.51
2023-04-08T13:09:47.828Z,17.26
2023-04-08T13:12:51.685Z,17.13
2023-04-08T13:15:55.563Z,16.84
2023-04-08T13:19:00.781Z,17.21
2023-04-08T13:22:04.565Z,17.13
2023-04-08T13:25:08.986Z,17.23
2023-04-08T13:28:12.896Z,17.01
2023-04-08T13:31:16.848Z,16.84
2023-04-08T13:34:22.304Z,16.95
2023-04-08T13:37:26.148Z,17.09
2023-04-08T13:40:30.413Z,17.18
2023-04-08T13:43:34.282Z,17.14
2023-04-08T13:46:38.075Z,16.87
2023-04-08T13:49:43.414Z,17.31
2023-04-08T13:52:47.597Z,17.05
2023-04-08T13:55:55.266Z,17.00
2023-04-08T13:58:59.467Z,16.95
2023-04-08T14:02:04.046Z,17.04
2023-04-08T14:05:10.639Z,17.05
2023-04-08T14:08:14.681Z,16.95
2023-04-08T14:11:18.467Z,16.47
2023-04-08T14:14:22.338Z,16.16
2023-04-08T14:17:26.252Z,16.41
2023-04-08T14:20:32.187Z,16.51
2023-04-08T14:23:36.132Z,16.20
2023-04-08T14:26:39.961Z,16.31
2023-04-08T14:29:43.775Z,16.21
2023-04-08T14:32:47.611Z,16.19
2023-04-08T14:35:54.444Z,16.02
2023-04-08T14:38:58.338Z,16.10
2023-04-08T14:42:02.408Z,15.99
2023-04-08T14:45:06.838Z,15.70
2023-04-08T14:48:10.672Z,15.92
2023-04-08T14:51:16.040Z,15.86
2023-04-08T14:54:20.360Z,15.74
2023-04-08T14:57:24.142Z,15.65
2023-04-08T15:00:28.198Z,15.37
2023-04-08T15:03:32.047Z,15.08
2023-04-08T15:06:39.270Z,15.28
2023-04-08T15:09:43.295Z,15.21
2023-04-08T15:12:47.050Z,15.38
2023-04-08T15:15:50.914Z,15.16
2023-04-08T15:18:55.385Z,15.07
2023-04-08T15:22:00.690Z,15.14
2023-04-08T15:25:05.694Z,15.44
2023-04-08T15:28:10.082Z,15.42
2023-04-08T15:31:14.158Z,15.30
2023-04-08T15:34:18.096Z,15.28
2023-04-08T15:37:24.080Z,15.24
2023-04-08T15:40:28.106Z,15.12
2023-04-08T15:43:31.966Z,15.04
2023-04-08T15:46:37.467Z,15.20
2023-04-08T15:49:41.796Z,15.23
2023-04-08T15:52:47.193Z,15.17
2023-04-08T15:55:51.124Z,15.28
2023-04-08T15:58:55.043Z,15.13
2023-04-08T16:01:59.001Z,15.15
2023-04-08T16:05:03.132Z,15.13
2023-04-08T16:08:08.547Z,15.02
2023-04-08T16:11:12.532Z,14.89
2023-04-08T16:14:16.706Z,14.59
2023-04-08T16:17:20.491Z,14.79
2023-04-08T16:20:24.340Z,14.57
2023-04-08T16:23:30.022Z,14.55
2023-04-08T16:26:34.512Z,14.84
2023-04-08T16:29:38.537Z,14.87
2023-04-08T16:32:42.422Z,14.91
2023-04-08T16:35:46.769Z,14.78
2023-04-08T16:38:53.930Z,14.75
2023-04-08T16:41:57.775Z,14.73
2023-04-08T16:45:01.816Z,14.65
2023-04-08T16:48:05.964Z,14.66
2023-04-08T16:51:10.007Z,14.60
2023-04-08T16:54:15.386Z,14.72
2023-04-08T16:57:19.396Z,14.91
2023-04-08T17:00:23.517Z,14.84
2023-04-08T17:03:27.582Z,14.93
2023-04-08T17:06:31.595Z,14.78
2023-04-08T17:09:37.380Z,14.90
2023-04-08T17:12:41.945Z,14.67
2023-04-08T17:15:45.751Z,14.79
2023-04-08T17:18:49.756Z,14.74
2023-04-08T17:21:53.772Z,14.65
2023-04-08T17:24:59.142Z,14.76
2023-04-08T17:28:03.052Z,14.88
2023-04-08T17:31:06.970Z,15.01
2023-04-08T17:34:10.863Z,14.94
2023-04-08T17:37:14.761Z,14.93
2023-04-08T17:40:20.439Z,14.83
2023-04-08T17:43:24.260Z,14.92
2023-04-08T17:46:28.247Z,14.85
2023-04-08T17:49:32.183Z,14.73
2023-04-08T17:52:36.068Z,14.69
2023-04-08T17:55:41.494Z,14.63
2023-04-08T17:58:48.474Z,14.40
2023-04-08T18:01:52.330Z,14.41
2023-04-08T18:04:56.336Z,14.49
2023-04-08T18:08:00.135Z,14.18
2023-04-08T18:11:07.793Z,14.21
2023-04-08T18:14:12.837Z,13.95
2023-04-08T18:17:16.756Z,13.93
2023-04-08T18:20:20.861Z,14.08
2023-04-08T18:23:24.814Z,13.84
2023-04-08T18:26:30.023Z,13.84
2023-04-08T18:29:34.008Z,13.99
2023-04-08T18:32:37.799Z,14.09
2023-04-08T18:35:41.968Z,13.96
2023-04-08T18:38:46.143Z,13.80
2023-04-08T18:41:51.278Z,13.84
2023-04-08T18:44:55.180Z,13.91
2023-04-08T18:47:59.250Z,14.11
2023-04-08T18:51:03.080Z,13.99
2023-04-08T18:54:06.948Z,13.96
2023-04-08T18:57:12.439Z,13.70
2023-04-08T19:00:16.722Z,13.94
2023-04-08T19:03:20.993Z,13.93
2023-04-08T19:06:24.919Z,13.75
2023-04-08T19:09:28.775Z,13.68
2023-04-08T19:12:34.176Z,13.59
2023-04-08T19:15:38.043Z,13.58
2023-04-08T19:18:41.898Z,13.60
2023-04-08T19:21:45.668Z,13.55
2023-04-08T19:24:49.581Z,13.68
2023-04-08T19:27:54.825Z,13.62
2023-04-08T19:30:58.776Z,13.71
2023-04-08T19:34:02.642Z,13.60
2023-04-08T19:37:06.789Z,13.37
2023-04-08T19:40:11.674Z,13.41
2023-04-08T19:43:17.932Z,13.21
2023-04-08T19:46:21.819Z,13.03
2023-04-08T19:49:25.890Z,13.15
2023-04-08T19:52:29.646Z,13.01
2023-04-08T19:55:33.644Z,13.18
2023-04-08T19:58:39.007Z,12.83
2023-04-08T20:01:42.966Z,12.87
2023-04-08T20:04:47.049Z,12.90
2023-04-08T20:07:51.066Z,12.78
2023-04-08T20:10:54.882Z,12.67
2023-04-08T20:14:00.508Z,12.51
2023-04-08T20:17:04.726Z,12.37
2023-04-08T20:20:09.842Z,12.58
2023-04-08T20:23:13.922Z,12.38
2023-04-08T20:26:17.862Z,12.26
2023-04-08T20:29:23.244Z,12.27
2023-04-08T20:32:28.150Z,12.22
2023-04-08T20:35:32.004Z,12.12
2023-04-08T20:38:37.143Z,12.04
2023-04-08T20:41:40.925Z,12.05
2023-04-08T20:44:46.274Z,11.95
2023-04-08T20:47:50.151Z,11.69
2023-04-08T20:50:54.009Z,11.83
2023-04-08T20:53:57.776Z,11.78
2023-04-08T20:57:01.619Z,11.66
2023-04-08T21:00:07.858Z,11.62
2023-04-08T21:03:11.798Z,11.77
2023-04-08T21:06:18.937Z,11.74
2023-04-08T21:09:22.724Z,11.78
2023-04-08T21:12:26.506Z,11.74
2023-04-08T21:15:32.019Z,11.54
2023-04-08T21:18:36.342Z,11.72
2023-04-08T21:21:40.229Z,11.74
2023-04-08T21:24:44.096Z,11.84
2023-04-08T21:27:47.969Z,11.85
2023-04-08T21:30:54.425Z,12.05
2023-04-08T21:33:58.304Z,11.85
2023-04-08T21:37:02.311Z,11.85
2023-04-08T21:40:06.879Z,11.42
2023-04-08T21:43:10.667Z,11.38
2023-04-08T21:46:16.065Z,11.31
2023-04-08T21:49:19.973Z,11.41
2023-04-08T21:52:23.880Z,11.57
2023-04-08T21:55:37.796Z,11.39
2023-04-08T21:58:41.574Z,11.06
2023-04-08T22:01:46.858Z,10.68
2023-04-08T22:04:50.914Z,10.66
2023-04-08T22:07:55.337Z,10.64
2023-04-08T22:10:59.279Z,11.08
2023-04-08T22:14:03.085Z,10.96
2023-04-08T22:17:08.517Z,10.79
2023-04-08T22:20:13.351Z,10.80
2023-04-08T22:23:17.196Z,10.80
2023-04-08T22:26:21.581Z,11.14
2023-04-08T22:29:25.389Z,11.04
2023-04-08T22:32:30.726Z,11.29
2023-04-08T22:35:34.679Z,11.22
2023-04-08T22:38:38.511Z,11.34
2023-04-08T22:41:42.286Z,11.32
2023-04-08T22:44:46.233Z,11.06
2023-04-08T22:47:51.458Z,11.05
2023-04-08T22:50:55.189Z,11.34
2023-04-08T22:53:59.020Z,11.25
2023-04-08T22:57:03.331Z,10.98
2023-04-08T23:00:08.308Z,11.21
2023-04-08T23:03:13.449Z,11.12
2023-04-08T23:06:17.379Z,11.09
2023-04-08T23:09:23.936Z,11.21
2023-04-08T23:12:27.523Z,11.02
2023-04-08T23:15:31.328Z,10.86
2023-04-08T23:18:36.608Z,10.54
2023-04-08T23:21:40.654Z,10.74
2023-04-08T23:24:44.853Z,10.84
2023-04-08T23:27:48.496Z,10.55
2023-04-08T23:30:52.232Z,10.52
2023-04-08T23:33:57.389Z,10.80
2023-04-08T23:37:01.141Z,10.68
2023-04-08T23:40:04.938Z,10.32
2023-04-08T23:43:08.674Z,10.35
2023-04-08T23:46:12.295Z,10.37
2023-04-08T23:49:17.528Z,10.25
2023-04-08T23:52:21.178Z,10.23
2023-04-08T23:55:24.864Z,10.25
2023-04-08T23:58:28.562Z,9.88
